createdAt,value
2017-04-24T00:00:13.628Z,1006.90
2017-04-24T00:00:35.367Z,1006.77
2017-04-24T00:01:01.930Z,1006.84
2017-04-24T00:01:23.739Z,1006.72
2017-04-24T00:02:22.456Z,1006.71
2017-04-24T00:02:44.262Z,1006.61
2017-04-24T00:03:37.247Z,1006.82
2017-04-24T00:03:59.092Z,1006.87
2017-04-24T00:04:52.064Z,1006.65
2017-04-24T00:05:13.879Z,1006.57
2017-04-24T00:06:06.940Z,1006.72
2017-04-24T00:06:28.664Z,1006.73
2017-04-24T00:07:21.621Z,1006.62
2017-04-24T00:07:48.196Z,1006.62
2017-04-24T00:08:09.912Z,1006.64
2017-04-24T00:08:31.614Z,1006.75
2017-04-24T00:08:53.336Z,1006.77
2017-04-24T00:09:15.130Z,1006.68
2017-04-24T00:09:36.839Z,1006.74
2017-04-24T00:09:58.537Z,1006.55
2017-04-24T00:10:20.315Z,1006.60
2017-04-24T00:10:46.799Z,1006.69
2017-04-24T00:11:08.524Z,1006.66
2017-04-24T00:12:11.034Z,1006.46
2017-04-24T00:12:32.821Z,1006.45
2017-04-24T00:12:54.515Z,1006.44
2017-04-24T00:13:16.212Z,1006.57
2017-04-24T00:13:37.936Z,1006.52
2017-04-24T00:13:59.717Z,1006.49
2017-04-24T00:14:52.661Z,1006.59
2017-04-24T00:15:19.264Z,1006.73
2017-04-24T00:15:41.012Z,1006.49
2017-04-24T00:16:02.728Z,1006.45
2017-04-24T00:17:01.035Z,1006.63
2017-04-24T00:18:03.697Z,1006.71
2017-04-24T00:18:25.396Z,1006.69
2017-04-24T00:19:23.960Z,1006.65
2017-04-24T00:19:50.440Z,1006.46
2017-04-24T00:20:48.721Z,1006.55
2017-04-24T00:21:41.814Z,1006.48
2017-04-24T00:22:08.304Z,1006.33
2017-04-24T00:22:30.088Z,1006.45
2017-04-24T00:22:51.791Z,1006.41
2017-04-24T00:23:50.090Z,1006.43
2017-04-24T00:24:43.148Z,1006.28
2017-04-24T00:25:09.615Z,1006.35
2017-04-24T00:25:34.302Z,1006.46
2017-04-24T00:25:55.999Z,1006.33
2017-04-24T00:26:17.708Z,1006.24
2017-04-24T00:26:39.493Z,1006.43
2017-04-24T00:27:05.967Z,1006.40
2017-04-24T00:27:27.667Z,1006.36
2017-04-24T00:28:20.617Z,1006.36
2017-04-24T00:29:13.664Z,1006.35
2017-04-24T00:29:40.152Z,1006.41
2017-04-24T00:30:02.867Z,1006.42
2017-04-24T00:30:24.585Z,1006.22
2017-04-24T00:31:17.623Z,1006.27
2017-04-24T00:31:44.092Z,1006.37
2017-04-24T00:32:05.884Z,1006.29
2017-04-24T00:32:58.881Z,1006.27
2017-04-24T00:33:25.454Z,1006.36
2017-04-24T00:33:47.150Z,1006.25
2017-04-24T00:34:08.860Z,1006.27
2017-04-24T00:34:30.594Z,1006.28
2017-04-24T00:34:53.375Z,1006.20
2017-04-24T00:35:19.869Z,1006.15
2017-04-24T00:35:41.566Z,1006.19
2017-04-24T00:36:03.353Z,1006.38
2017-04-24T00:36:25.055Z,1006.31
2017-04-24T00:36:46.786Z,1006.23
2017-04-24T00:37:49.291Z,1006.27
2017-04-24T00:38:42.336Z,1006.29
2017-04-24T00:39:35.354Z,1006.35
2017-04-24T00:39:57.059Z,1006.34
2017-04-24T00:40:18.759Z,1006.23
2017-04-24T00:40:40.471Z,1006.25
2017-04-24T00:41:02.249Z,1006.32
2017-04-24T00:41:23.956Z,1006.17
2017-04-24T00:41:45.661Z,1006.35
2017-04-24T00:42:12.187Z,1006.34
2017-04-24T00:42:33.970Z,1006.35
2017-04-24T00:42:55.690Z,1006.27
2017-04-24T00:43:22.215Z,1006.31
2017-04-24T00:43:44.005Z,1006.35
2017-04-24T00:44:36.961Z,1006.18
2017-04-24T00:45:29.904Z,1006.23
2017-04-24T00:46:22.947Z,1006.26
2017-04-24T00:46:44.651Z,1006.21
2017-04-24T00:47:42.945Z,1006.24
2017-04-24T00:48:36.040Z,1006.22
2017-04-24T00:49:29.092Z,1006.43
2017-04-24T00:50:22.146Z,1006.42
2017-04-24T00:51:15.137Z,1006.40
2017-04-24T00:51:36.851Z,1006.31
2017-04-24T00:52:29.911Z,1006.31
2017-04-24T00:53:35.129Z,1006.52
2017-04-24T00:53:56.922Z,1006.28
2017-04-24T00:54:23.399Z,1006.18
2017-04-24T00:54:45.097Z,1006.20
2017-04-24T00:55:38.148Z,1006.26
2017-04-24T00:55:59.880Z,1006.37
2017-04-24T00:56:26.370Z,1006.15
2017-04-24T00:56:48.129Z,1006.09
2017-04-24T00:57:09.857Z,1006.06
2017-04-24T00:58:08.279Z,1006.25
2017-04-24T00:59:10.867Z,1006.27
2017-04-24T00:59:32.580Z,1006.39
2017-04-24T00:59:54.292Z,1006.17
2017-04-24T01:00:15.991Z,1006.23
2017-04-24T01:00:37.782Z,1006.21
2017-04-24T01:01:45.070Z,1006.02
2017-04-24T01:02:06.768Z,1006.30
2017-04-24T01:02:28.548Z,1006.07
2017-04-24T01:03:21.601Z,1005.96
2017-04-24T01:04:24.109Z,1006.18
2017-04-24T01:05:22.417Z,1006.10
2017-04-24T01:06:15.376Z,1006.21
2017-04-24T01:06:37.075Z,1006.07
2017-04-24T01:07:03.638Z,1006.00
2017-04-24T01:07:25.334Z,1006.25
2017-04-24T01:07:47.025Z,1006.19
2017-04-24T01:08:40.057Z,1006.12
2017-04-24T01:09:01.762Z,1006.18
2017-04-24T01:09:28.257Z,1006.16
2017-04-24T01:09:49.977Z,1005.99
2017-04-24T01:10:16.544Z,1006.04
2017-04-24T01:10:38.244Z,1005.94
2017-04-24T01:11:04.731Z,1006.10
2017-04-24T01:11:26.517Z,1006.19
2017-04-24T01:11:48.226Z,1006.07
2017-04-24T01:12:09.951Z,1006.33
2017-04-24T01:12:31.709Z,1006.13
2017-04-24T01:12:53.471Z,1006.11
2017-04-24T01:13:51.876Z,1006.16
2017-04-24T01:14:13.571Z,1005.91
2017-04-24T01:15:11.885Z,1006.19
2017-04-24T01:15:33.691Z,1006.19
2017-04-24T01:16:32.083Z,1006.22
2017-04-24T01:16:53.815Z,1005.95
2017-04-24T01:18:01.133Z,1006.15
2017-04-24T01:18:22.964Z,1005.93
2017-04-24T01:19:21.357Z,1006.06
2017-04-24T01:20:28.637Z,1006.35
2017-04-24T01:20:50.416Z,1006.04
2017-04-24T01:21:12.116Z,1005.86
2017-04-24T01:21:38.594Z,1005.78
2017-04-24T01:22:00.304Z,1005.94
2017-04-24T01:22:26.880Z,1005.94
2017-04-24T01:22:48.572Z,1005.97
2017-04-24T01:23:41.599Z,1005.85
2017-04-24T01:24:34.722Z,1005.89
2017-04-24T01:25:27.579Z,1005.94
2017-04-24T01:26:20.542Z,1005.94
2017-04-24T01:27:13.587Z,1005.96
2017-04-24T01:27:40.058Z,1005.92
2017-04-24T01:28:01.753Z,1005.85
2017-04-24T01:28:28.234Z,1005.79
2017-04-24T01:28:50.001Z,1005.94
2017-04-24T01:29:11.711Z,1005.99
2017-04-24T01:29:38.202Z,1005.97
2017-04-24T01:30:00.013Z,1005.99
2017-04-24T01:30:21.711Z,1005.98
2017-04-24T01:30:48.202Z,1006.05
2017-04-24T01:31:09.997Z,1006.03
2017-04-24T01:31:31.714Z,1005.82
2017-04-24T01:32:30.018Z,1005.86
2017-04-24T01:33:28.402Z,1005.90
2017-04-24T01:33:50.104Z,1005.92
2017-04-24T01:34:48.541Z,1006.01
2017-04-24T01:35:41.487Z,1005.76
2017-04-24T01:36:07.960Z,1005.77
2017-04-24T01:36:29.664Z,1005.93
2017-04-24T01:36:56.192Z,1005.93
2017-04-24T01:37:17.976Z,1005.63
2017-04-24T01:37:39.681Z,1005.77
2017-04-24T01:38:38.120Z,1005.91
2017-04-24T01:39:04.602Z,1005.79
2017-04-24T01:40:07.215Z,1005.62
2017-04-24T01:40:28.914Z,1005.83
2017-04-24T01:41:27.211Z,1005.60
2017-04-24T01:41:48.987Z,1005.74
2017-04-24T01:42:48.325Z,1005.59
2017-04-24T01:43:41.438Z,1005.48
2017-04-24T01:44:03.146Z,1005.71
2017-04-24T01:44:29.715Z,1005.87
2017-04-24T01:44:51.428Z,1005.68
2017-04-24T01:45:44.483Z,1005.38
2017-04-24T01:46:06.196Z,1005.36
2017-04-24T01:46:32.683Z,1005.56
2017-04-24T01:46:54.464Z,1005.53
2017-04-24T01:47:16.167Z,1005.57
2017-04-24T01:47:42.652Z,1005.46
2017-04-24T01:48:04.354Z,1005.47
2017-04-24T01:48:26.193Z,1005.50
2017-04-24T01:48:52.677Z,1005.50
2017-04-24T01:49:14.383Z,1005.52
2017-04-24T01:50:21.688Z,1005.78
2017-04-24T01:50:43.486Z,1005.50
2017-04-24T01:51:05.218Z,1005.57
2017-04-24T01:51:58.175Z,1005.42
2017-04-24T01:52:19.873Z,1005.50
2017-04-24T01:52:46.359Z,1005.50
2017-04-24T01:53:08.088Z,1005.35
2017-04-24T01:53:29.886Z,1005.25
2017-04-24T01:53:56.376Z,1005.25
2017-04-24T01:54:18.071Z,1005.59
2017-04-24T01:54:44.652Z,1005.39
2017-04-24T01:55:06.346Z,1005.30
2017-04-24T01:55:59.366Z,1005.40
2017-04-24T01:56:21.071Z,1005.47
2017-04-24T01:56:47.541Z,1005.52
2017-04-24T01:57:09.250Z,1005.58
2017-04-24T01:57:31.051Z,1005.66
2017-04-24T01:58:29.365Z,1005.68
2017-04-24T01:59:22.405Z,1005.25
2017-04-24T02:00:15.377Z,1005.50
2017-04-24T02:01:08.410Z,1005.44
2017-04-24T02:02:01.463Z,1005.50
2017-04-24T02:02:54.420Z,1005.40
2017-04-24T02:03:16.137Z,1005.42
2017-04-24T02:03:37.834Z,1005.31
2017-04-24T02:03:59.646Z,1005.37
2017-04-24T02:04:52.619Z,1005.43
2017-04-24T02:05:50.957Z,1005.39
2017-04-24T02:06:43.926Z,1005.45
2017-04-24T02:07:05.627Z,1005.39
2017-04-24T02:07:27.448Z,1005.38
2017-04-24T02:07:49.154Z,1005.35
2017-04-24T02:08:10.857Z,1005.48
2017-04-24T02:08:37.339Z,1005.38
2017-04-24T02:08:59.143Z,1005.45
2017-04-24T02:09:20.858Z,1005.46
2017-04-24T02:09:42.557Z,1005.32
2017-04-24T02:10:04.281Z,1005.26
2017-04-24T02:10:57.229Z,1005.30
2017-04-24T02:11:23.702Z,1005.31
2017-04-24T02:11:45.497Z,1005.53
2017-04-24T02:12:52.774Z,1005.48
2017-04-24T02:13:14.590Z,1005.33
2017-04-24T02:13:36.385Z,1005.39
2017-04-24T02:13:58.189Z,1005.40
2017-04-24T02:14:19.974Z,1005.27
2017-04-24T02:14:46.539Z,1005.30
2017-04-24T02:15:08.334Z,1005.14
2017-04-24T02:16:01.364Z,1005.34
2017-04-24T02:16:27.919Z,1005.22
2017-04-24T02:16:49.703Z,1005.24
2017-04-24T02:17:11.497Z,1005.20
2017-04-24T02:17:38.072Z,1005.34
2017-04-24T02:17:59.872Z,1005.23
2017-04-24T02:18:26.349Z,1005.10
2017-04-24T02:18:48.133Z,1005.20
2017-04-24T02:19:14.613Z,1005.29
2017-04-24T02:19:36.425Z,1005.35
2017-04-24T02:20:02.996Z,1005.43
2017-04-24T02:20:24.870Z,1005.30
2017-04-24T02:20:46.587Z,1005.27
2017-04-24T02:21:13.144Z,1005.14
2017-04-24T02:21:34.912Z,1005.17
2017-04-24T02:22:01.426Z,1005.28
2017-04-24T02:22:23.132Z,1005.37
2017-04-24T02:22:49.622Z,1005.49
2017-04-24T02:23:57.019Z,1005.10
2017-04-24T02:24:18.779Z,1005.22
2017-04-24T02:24:40.506Z,1005.19
2017-04-24T02:25:02.285Z,1005.28
2017-04-24T02:25:24.039Z,1005.34
2017-04-24T02:25:45.836Z,1005.34
2017-04-24T02:26:07.551Z,1005.08
2017-04-24T02:26:29.242Z,1005.26
2017-04-24T02:26:50.975Z,1005.06
2017-04-24T02:27:12.703Z,1005.14
2017-04-24T02:28:05.795Z,1005.44
2017-04-24T02:28:32.330Z,1005.14
2017-04-24T02:28:54.061Z,1005.34
2017-04-24T02:29:15.820Z,1005.26
2017-04-24T02:29:37.554Z,1005.04
2017-04-24T02:29:59.255Z,1005.14
2017-04-24T02:30:21.005Z,1005.27
2017-04-24T02:30:42.728Z,1005.33
2017-04-24T02:31:04.492Z,1005.17
2017-04-24T02:31:26.228Z,1005.09
2017-04-24T02:31:47.988Z,1005.02
2017-04-24T02:32:09.800Z,1005.05
2017-04-24T02:32:31.569Z,1005.30
2017-04-24T02:32:53.304Z,1005.29
2017-04-24T02:33:15.062Z,1005.11
2017-04-24T02:33:36.779Z,1004.96
2017-04-24T02:33:58.535Z,1005.18
2017-04-24T02:34:20.253Z,1005.28
2017-04-24T02:34:42.119Z,1005.18
2017-04-24T02:35:03.862Z,1005.09
2017-04-24T02:35:25.626Z,1005.18
2017-04-24T02:35:47.399Z,1005.13
2017-04-24T02:36:09.196Z,1005.00
2017-04-24T02:36:30.982Z,1005.13
2017-04-24T02:36:52.732Z,1005.20
2017-04-24T02:37:14.488Z,1005.13
2017-04-24T02:37:36.237Z,1005.15
2017-04-24T02:37:57.966Z,1005.07
2017-04-24T02:38:19.718Z,1005.21
2017-04-24T02:38:41.488Z,1005.19
2017-04-24T02:39:03.343Z,1004.99
2017-04-24T02:39:25.091Z,1005.00
2017-04-24T02:39:46.916Z,1005.14
2017-04-24T02:40:08.696Z,1004.91
2017-04-24T02:40:30.453Z,1004.83
2017-04-24T02:40:52.181Z,1005.01
2017-04-24T02:41:13.914Z,1005.09
2017-04-24T02:41:35.667Z,1005.17
2017-04-24T02:41:57.353Z,1005.00
2017-04-24T02:42:19.098Z,1004.85
2017-04-24T02:42:40.881Z,1005.03
2017-04-24T02:43:02.628Z,1005.15
2017-04-24T02:43:24.404Z,1004.91
2017-04-24T02:43:46.168Z,1004.80
2017-04-24T02:44:07.911Z,1004.76
2017-04-24T02:44:29.717Z,1004.85
2017-04-24T02:44:51.484Z,1005.02
2017-04-24T02:45:13.227Z,1005.09
2017-04-24T02:45:35.083Z,1005.22
2017-04-24T02:45:56.911Z,1005.08
2017-04-24T02:46:18.660Z,1004.92
2017-04-24T02:46:40.413Z,1004.89
2017-04-24T02:47:02.303Z,1004.72
2017-04-24T02:47:24.068Z,1004.65
2017-04-24T02:47:45.821Z,1005.05
2017-04-24T02:48:07.574Z,1005.00
2017-04-24T02:48:29.323Z,1004.98
2017-04-24T02:48:51.081Z,1004.84
2017-04-24T02:49:12.844Z,1004.80
2017-04-24T02:49:34.615Z,1004.93
2017-04-24T02:49:56.513Z,1004.92
2017-04-24T02:50:18.264Z,1004.76
2017-04-24T02:50:40.030Z,1004.75
2017-04-24T02:51:01.792Z,1004.90
2017-04-24T02:51:23.527Z,1004.74
2017-04-24T02:51:45.277Z,1004.71
2017-04-24T02:52:07.023Z,1004.93
2017-04-24T02:52:28.771Z,1004.78
2017-04-24T02:52:50.530Z,1004.83
2017-04-24T02:53:12.288Z,1004.81
2017-04-24T02:53:34.055Z,1004.77
2017-04-24T02:53:55.806Z,1004.85
2017-04-24T02:54:17.550Z,1005.04
2017-04-24T02:55:10.575Z,1004.91
2017-04-24T02:55:32.330Z,1004.78
2017-04-24T02:57:06.260Z,1004.85
2017-04-24T02:57:28.022Z,1004.90
2017-04-24T02:57:49.781Z,1004.69
2017-04-24T02:58:11.738Z,1004.90
2017-04-24T02:58:33.342Z,1004.92
2017-04-24T02:58:55.080Z,1004.85
2017-04-24T02:59:16.831Z,1004.76
2017-04-24T02:59:38.546Z,1004.96
2017-04-24T03:00:00.341Z,1004.90
2017-04-24T03:00:22.080Z,1004.84
2017-04-24T03:00:43.825Z,1004.84
2017-04-24T03:01:05.572Z,1004.87
2017-04-24T03:01:27.306Z,1004.88
2017-04-24T03:01:49.066Z,1004.58
2017-04-24T03:02:10.802Z,1004.72
2017-04-24T03:02:32.538Z,1004.82
2017-04-24T03:02:54.308Z,1004.81
2017-04-24T03:03:16.040Z,1004.90
2017-04-24T03:03:37.789Z,1004.83
2017-04-24T03:03:59.500Z,1004.90
2017-04-24T03:04:21.221Z,1004.85
2017-04-24T03:04:42.965Z,1004.83
2017-04-24T03:05:04.709Z,1004.71
2017-04-24T03:05:26.433Z,1004.74
2017-04-24T03:05:48.199Z,1004.87
2017-04-24T03:06:09.966Z,1004.95
2017-04-24T03:06:31.711Z,1004.86
2017-04-24T03:06:53.511Z,1004.88
2017-04-24T03:07:15.266Z,1004.90
2017-04-24T03:07:37.041Z,1004.90
2017-04-24T03:07:58.824Z,1004.83
2017-04-24T03:08:20.545Z,1004.86
2017-04-24T03:08:42.311Z,1004.79
2017-04-24T03:09:04.089Z,1004.78
2017-04-24T03:09:25.844Z,1004.83
2017-04-24T03:09:47.600Z,1004.90
2017-04-24T03:10:09.333Z,1004.82
2017-04-24T03:10:31.103Z,1004.59
2017-04-24T03:10:52.853Z,1004.55
2017-04-24T03:11:14.644Z,1004.81
2017-04-24T03:11:36.444Z,1004.78
2017-04-24T03:11:58.277Z,1004.76
2017-04-24T03:12:20.058Z,1004.71
2017-04-24T03:12:41.876Z,1004.80
2017-04-24T03:13:03.616Z,1004.70
2017-04-24T03:13:25.384Z,1004.66
2017-04-24T03:13:47.140Z,1005.03
2017-04-24T03:14:49.835Z,1004.92
2017-04-24T03:15:11.580Z,1004.95
2017-04-24T03:15:33.489Z,1004.89
2017-04-24T03:15:55.288Z,1004.83
2017-04-24T03:16:17.053Z,1004.80
2017-04-24T03:16:38.811Z,1004.66
2017-04-24T03:17:00.575Z,1004.73
2017-04-24T03:17:22.332Z,1004.75
2017-04-24T03:17:44.075Z,1004.74
2017-04-24T03:18:05.972Z,1004.64
2017-04-24T03:18:27.694Z,1004.61
2017-04-24T03:18:49.425Z,1004.78
2017-04-24T03:19:11.202Z,1004.71
2017-04-24T03:19:32.950Z,1004.72
2017-04-24T03:19:54.761Z,1004.80
2017-04-24T03:20:16.535Z,1004.86
2017-04-24T03:20:38.303Z,1004.90
2017-04-24T03:21:04.846Z,1004.79
2017-04-24T03:22:07.437Z,1004.62
2017-04-24T03:22:29.161Z,1004.63
2017-04-24T03:22:50.928Z,1004.72
2017-04-24T03:23:12.664Z,1004.66
2017-04-24T03:23:34.477Z,1004.77
2017-04-24T03:23:56.231Z,1004.75
2017-04-24T03:24:18.014Z,1004.86
2017-04-24T03:24:39.812Z,1004.74
2017-04-24T03:25:38.267Z,1004.63
2017-04-24T03:26:31.448Z,1004.69
2017-04-24T03:27:29.899Z,1004.69
2017-04-24T03:27:51.688Z,1004.72
2017-04-24T03:28:13.441Z,1004.73
2017-04-24T03:28:35.198Z,1004.72
2017-04-24T03:28:56.964Z,1004.91
2017-04-24T03:29:18.707Z,1004.74
2017-04-24T03:29:40.451Z,1004.73
2017-04-24T03:30:02.184Z,1004.61
2017-04-24T03:30:23.941Z,1004.63
2017-04-24T03:30:45.699Z,1004.68
2017-04-24T03:31:07.429Z,1004.67
2017-04-24T03:31:29.155Z,1004.50
2017-04-24T03:31:50.905Z,1004.71
2017-04-24T03:32:12.673Z,1004.54
2017-04-24T03:32:34.471Z,1004.59
2017-04-24T03:32:56.274Z,1004.61
2017-04-24T03:33:18.053Z,1004.70
2017-04-24T03:33:39.755Z,1004.55
2017-04-24T03:34:01.479Z,1004.43
2017-04-24T03:34:23.281Z,1004.42
2017-04-24T03:34:45.036Z,1004.56
2017-04-24T03:35:06.745Z,1004.58
2017-04-24T03:36:09.283Z,1004.71
2017-04-24T03:36:30.971Z,1004.60
2017-04-24T03:36:52.676Z,1004.32
2017-04-24T03:37:55.193Z,1004.54
2017-04-24T03:38:16.902Z,1004.67
2017-04-24T03:38:38.632Z,1004.66
2017-04-24T03:39:31.659Z,1004.50
2017-04-24T03:39:53.366Z,1004.49
2017-04-24T03:40:15.077Z,1004.60
2017-04-24T03:40:36.860Z,1004.70
2017-04-24T03:41:35.137Z,1004.61
2017-04-24T03:41:56.976Z,1004.68
2017-04-24T03:42:59.478Z,1004.62
2017-04-24T03:43:57.784Z,1004.42
2017-04-24T03:44:24.286Z,1004.52
2017-04-24T03:45:31.569Z,1004.29
2017-04-24T03:45:53.326Z,1004.64
2017-04-24T03:46:15.030Z,1004.53
2017-04-24T03:47:08.143Z,1004.46
2017-04-24T03:47:29.852Z,1004.44
2017-04-24T03:48:22.908Z,1004.65
2017-04-24T03:48:49.402Z,1004.40
2017-04-24T03:49:11.089Z,1004.47
2017-04-24T03:49:37.569Z,1004.63
2017-04-24T03:49:59.379Z,1004.29
2017-04-24T03:50:21.091Z,1004.44
2017-04-24T03:50:47.573Z,1004.29
2017-04-24T03:51:09.382Z,1004.39
2017-04-24T03:51:31.108Z,1004.67
2017-04-24T03:51:55.036Z,1004.57
2017-04-24T03:52:16.832Z,1004.57
2017-04-24T03:53:09.789Z,1004.43
2017-04-24T03:53:36.274Z,1004.47
2017-04-24T03:53:58.064Z,1004.45
2017-04-24T03:54:24.550Z,1004.31
2017-04-24T03:54:46.251Z,1004.38
2017-04-24T03:55:39.270Z,1004.28
2017-04-24T03:56:05.739Z,1004.25
2017-04-24T03:57:04.143Z,1004.46
2017-04-24T03:57:25.881Z,1004.47
2017-04-24T03:58:24.296Z,1004.34
2017-04-24T03:58:48.558Z,1004.24
2017-04-24T03:59:41.598Z,1004.40
2017-04-24T04:00:03.314Z,1004.55
2017-04-24T04:01:06.642Z,1004.36
2017-04-24T04:01:28.343Z,1004.40
2017-04-24T04:01:50.069Z,1004.28
2017-04-24T04:02:11.873Z,1004.25
2017-04-24T04:02:38.371Z,1004.14
2017-04-24T04:03:00.039Z,1004.25
2017-04-24T04:03:21.845Z,1004.31
2017-04-24T04:03:43.556Z,1004.25
2017-04-24T04:04:05.265Z,1004.37
2017-04-24T04:04:31.748Z,1004.45
2017-04-24T04:04:53.557Z,1004.31
2017-04-24T04:05:46.544Z,1004.40
2017-04-24T04:06:08.330Z,1004.42
2017-04-24T04:07:01.284Z,1004.41
2017-04-24T04:07:23.099Z,1004.36
2017-04-24T04:07:49.589Z,1004.35
2017-04-24T04:08:11.293Z,1004.38
2017-04-24T04:08:37.904Z,1004.63
2017-04-24T04:08:59.536Z,1004.64
2017-04-24T04:09:21.258Z,1004.45
2017-04-24T04:09:42.976Z,1004.21
2017-04-24T04:10:04.778Z,1004.18
2017-04-24T04:10:26.502Z,1004.28
2017-04-24T04:10:48.228Z,1004.29
2017-04-24T04:11:09.928Z,1004.59
2017-04-24T04:11:31.719Z,1004.53
2017-04-24T04:11:53.427Z,1004.40
2017-04-24T04:12:15.149Z,1004.31
2017-04-24T04:12:36.853Z,1004.25
2017-04-24T04:13:29.889Z,1004.36
2017-04-24T04:13:56.373Z,1004.40
2017-04-24T04:14:18.071Z,1004.45
2017-04-24T04:14:44.552Z,1004.43
2017-04-24T04:15:06.341Z,1004.30
2017-04-24T04:15:28.042Z,1004.44
2017-04-24T04:15:54.515Z,1004.23
2017-04-24T04:16:16.306Z,1004.46
2017-04-24T04:16:38.009Z,1004.19
2017-04-24T04:17:36.330Z,1004.24
2017-04-24T04:18:02.842Z,1004.44
2017-04-24T04:18:27.417Z,1004.56
2017-04-24T04:18:49.221Z,1004.41
2017-04-24T04:19:15.699Z,1004.44
2017-04-24T04:19:37.397Z,1004.43
2017-04-24T04:20:03.889Z,1004.73
2017-04-24T04:20:25.658Z,1004.43
2017-04-24T04:20:52.171Z,1004.29
2017-04-24T04:21:13.866Z,1004.36
2017-04-24T04:21:40.356Z,1004.41
2017-04-24T04:22:02.134Z,1004.41
2017-04-24T04:22:55.227Z,1004.51
2017-04-24T04:23:21.702Z,1004.82
2017-04-24T04:23:43.397Z,1004.62
2017-04-24T04:24:05.094Z,1004.29
2017-04-24T04:24:31.599Z,1004.37
2017-04-24T04:24:53.398Z,1004.51
2017-04-24T04:25:19.890Z,1004.48
2017-04-24T04:25:41.596Z,1004.47
2017-04-24T04:26:03.430Z,1004.54
2017-04-24T04:26:29.901Z,1004.49
2017-04-24T04:26:51.652Z,1004.41
2017-04-24T04:27:18.162Z,1004.50
2017-04-24T04:27:39.957Z,1004.39
2017-04-24T04:28:01.669Z,1004.28
2017-04-24T04:28:23.385Z,1004.17
2017-04-24T04:28:45.170Z,1004.34
2017-04-24T04:29:11.638Z,1004.60
2017-04-24T04:29:33.363Z,1004.39
2017-04-24T04:29:59.981Z,1004.28
2017-04-24T04:30:21.653Z,1004.38
2017-04-24T04:30:48.129Z,1004.34
2017-04-24T04:31:09.852Z,1004.25
2017-04-24T04:31:31.631Z,1004.44
2017-04-24T04:31:58.103Z,1004.58
2017-04-24T04:32:19.801Z,1004.41
2017-04-24T04:32:46.275Z,1004.38
2017-04-24T04:33:08.066Z,1004.43
2017-04-24T04:33:29.780Z,1004.23
2017-04-24T04:34:22.840Z,1004.46
2017-04-24T04:35:15.883Z,1004.37
2017-04-24T04:35:37.591Z,1004.28
2017-04-24T04:35:59.304Z,1004.37
2017-04-24T04:36:21.012Z,1004.32
2017-04-24T04:36:42.823Z,1004.24
2017-04-24T04:37:35.800Z,1004.41
2017-04-24T04:37:57.592Z,1004.37
2017-04-24T04:38:19.296Z,1004.32
2017-04-24T04:38:40.995Z,1004.40
2017-04-24T04:39:34.019Z,1004.41
2017-04-24T04:39:55.728Z,1004.54
2017-04-24T04:40:22.202Z,1004.16
2017-04-24T04:40:43.976Z,1004.28
2017-04-24T04:41:10.448Z,1004.20
2017-04-24T04:41:32.149Z,1004.28
2017-04-24T04:42:25.236Z,1004.39
2017-04-24T04:42:51.709Z,1004.47
2017-04-24T04:43:13.408Z,1004.48
2017-04-24T04:43:35.220Z,1004.27
2017-04-24T04:44:01.691Z,1004.41
2017-04-24T04:44:23.395Z,1004.33
2017-04-24T04:44:45.147Z,1004.58
2017-04-24T04:45:11.617Z,1004.49
2017-04-24T04:45:33.315Z,1004.44
2017-04-24T04:45:55.013Z,1004.33
2017-04-24T04:46:21.494Z,1004.24
2017-04-24T04:46:43.280Z,1004.38
2017-04-24T04:47:05.541Z,1004.25
2017-04-24T04:47:32.012Z,1004.33
2017-04-24T04:47:53.808Z,1004.49
2017-04-24T04:48:15.690Z,1004.33
2017-04-24T04:49:08.645Z,1004.39
2017-04-24T04:50:15.930Z,1004.27
2017-04-24T04:50:37.739Z,1004.29
2017-04-24T04:50:59.448Z,1004.28
2017-04-24T04:51:25.927Z,1004.27
2017-04-24T04:51:47.634Z,1004.27
2017-04-24T04:52:14.222Z,1004.44
2017-04-24T04:52:35.945Z,1004.40
2017-04-24T04:53:03.416Z,1004.22
2017-04-24T04:53:25.182Z,1004.32
2017-04-24T04:53:51.654Z,1004.24
2017-04-24T04:54:13.385Z,1004.16
2017-04-24T04:54:35.071Z,1004.35
2017-04-24T04:54:56.868Z,1004.26
2017-04-24T04:55:18.583Z,1004.39
2017-04-24T04:56:11.618Z,1004.41
2017-04-24T04:57:14.132Z,1004.26
2017-04-24T04:57:36.008Z,1004.28
2017-04-24T04:58:34.264Z,1004.21
2017-04-24T04:58:56.070Z,1004.37
2017-04-24T04:59:22.548Z,1004.46
2017-04-24T04:59:44.257Z,1004.30
2017-04-24T05:00:10.830Z,1004.28
2017-04-24T05:00:32.561Z,1004.62
2017-04-24T05:01:25.530Z,1004.27
2017-04-24T05:02:55.271Z,1004.04
2017-04-24T05:03:48.262Z,1004.30
2017-04-24T05:04:09.981Z,1004.25
2017-04-24T05:04:36.609Z,1004.28
2017-04-24T05:04:58.306Z,1004.25
2017-04-24T05:07:22.463Z,1003.98
2017-04-24T05:07:44.283Z,1004.30
2017-04-24T05:08:37.226Z,1004.30
2017-04-24T05:09:03.810Z,1004.26
2017-04-24T05:09:25.515Z,1004.21
2017-04-24T05:10:28.043Z,1004.11
2017-04-24T05:10:49.779Z,1004.18
2017-04-24T05:11:48.073Z,1004.10
2017-04-24T05:12:46.410Z,1004.18
2017-04-24T05:13:08.168Z,1004.12
2017-04-24T05:14:06.590Z,1004.20
2017-04-24T05:14:59.661Z,1004.27
2017-04-24T05:15:26.145Z,1004.19
2017-04-24T05:15:47.852Z,1004.27
2017-04-24T05:16:19.202Z,1004.39
2017-04-24T05:16:45.691Z,1004.39
2017-04-24T05:17:07.400Z,1004.18
2017-04-24T05:17:29.126Z,1004.15
2017-04-24T05:17:55.601Z,1004.25
2017-04-24T05:18:17.298Z,1004.18
2017-04-24T05:19:15.600Z,1004.14
2017-04-24T05:20:08.569Z,1004.19
2017-04-24T05:20:35.055Z,1004.13
2017-04-24T05:20:56.843Z,1004.19
2017-04-24T05:21:59.351Z,1004.29
2017-04-24T05:22:21.154Z,1004.27
2017-04-24T05:23:28.430Z,1004.13
2017-04-24T05:23:50.262Z,1004.25
2017-04-24T05:24:11.967Z,1004.09
2017-04-24T05:24:33.709Z,1004.11
2017-04-24T05:24:55.406Z,1004.24
2017-04-24T05:25:17.104Z,1004.19
2017-04-24T05:25:38.899Z,1004.20
2017-04-24T05:26:00.655Z,1004.25
2017-04-24T05:26:22.358Z,1004.04
2017-04-24T05:26:44.172Z,1004.12
2017-04-24T05:27:05.881Z,1004.08
2017-04-24T05:27:27.586Z,1004.24
2017-04-24T05:27:49.315Z,1004.16
2017-04-24T05:28:10.999Z,1004.27
2017-04-24T05:28:37.572Z,1004.20
2017-04-24T05:28:59.262Z,1004.20
2017-04-24T05:29:20.956Z,1004.05
2017-04-24T05:29:48.746Z,1004.15
2017-04-24T05:30:10.467Z,1004.02
2017-04-24T05:30:36.954Z,1004.02
2017-04-24T05:30:58.741Z,1004.09
2017-04-24T05:31:25.223Z,1004.04
2017-04-24T05:31:46.923Z,1004.11
2017-04-24T05:32:13.402Z,1004.16
2017-04-24T05:32:35.105Z,1004.19
2017-04-24T05:32:56.847Z,1004.16
2017-04-24T05:33:18.567Z,1004.03
2017-04-24T05:33:40.263Z,1004.07
2017-04-24T05:34:38.683Z,1004.12
2017-04-24T05:35:00.474Z,1004.03
2017-04-24T05:35:26.960Z,1004.09
2017-04-24T05:35:48.707Z,1003.99
2017-04-24T05:36:15.186Z,1003.95
2017-04-24T05:36:36.873Z,1004.07
2017-04-24T05:36:58.573Z,1004.03
2017-04-24T05:37:56.904Z,1003.94
2017-04-24T05:38:49.863Z,1003.92
2017-04-24T05:39:42.829Z,1003.95
2017-04-24T05:40:50.150Z,1003.88
2017-04-24T05:41:16.659Z,1004.07
2017-04-24T05:41:38.382Z,1003.84
2017-04-24T05:42:00.125Z,1004.03
2017-04-24T05:42:21.855Z,1004.17
2017-04-24T05:42:43.583Z,1004.03
2017-04-24T05:43:05.322Z,1003.88
2017-04-24T05:43:58.368Z,1003.88
2017-04-24T05:45:00.873Z,1004.20
2017-04-24T05:45:22.574Z,1004.09
2017-04-24T05:46:20.904Z,1003.99
2017-04-24T05:46:42.614Z,1004.02
2017-04-24T05:47:04.350Z,1003.94
2017-04-24T05:47:26.086Z,1003.85
2017-04-24T05:47:47.776Z,1003.92
2017-04-24T05:48:14.266Z,1004.04
2017-04-24T05:48:36.154Z,1004.00
2017-04-24T05:48:57.856Z,1003.84
2017-04-24T05:49:19.558Z,1004.02
2017-04-24T05:49:41.244Z,1003.93
2017-04-24T05:50:02.948Z,1003.92
2017-04-24T05:50:29.425Z,1004.10
2017-04-24T05:50:51.129Z,1003.87
2017-04-24T05:51:12.838Z,1003.97
2017-04-24T05:51:34.619Z,1004.32
2017-04-24T05:51:56.333Z,1003.96
2017-04-24T05:52:22.837Z,1004.00
2017-04-24T05:52:44.535Z,1003.93
2017-04-24T05:53:43.041Z,1003.97
2017-04-24T05:54:41.439Z,1003.93
2017-04-24T05:55:07.934Z,1003.84
2017-04-24T05:55:34.568Z,1003.84
2017-04-24T05:55:56.322Z,1003.73